sensor_id;sensor_type;location;lat;lon;timestamp;P1;durP1;ratioP1;P2;durP2;ratioP2
24826;SDS011;12910;57.690;11.974;2022-07-21T00:00:58;7.63;;;5.53;;
24826;SDS011;12910;57.690;11.974;2022-07-21T00:03:23;6.38;;;5.88;;
24826;SDS011;12910;57.690;11.974;2022-07-21T00:05:49;5.43;;;5.07;;
24826;SDS011;12910;57.690;11.974;2022-07-21T00:08:14;5.47;;;5.18;;
24826;SDS011;12910;57.690;11.974;2022-07-21T00:10:40;5.80;;;4.63;;
24826;SDS011;12910;57.690;11.974;2022-07-21T00:13:06;5.72;;;5.32;;
24826;SDS011;12910;57.690;11.974;2022-07-21T00:15:31;5.43;;;5.13;;
24826;SDS011;12910;57.690;11.974;2022-07-21T00:17:58;5.32;;;4.93;;
24826;SDS011;12910;57.690;11.974;2022-07-21T00:20:24;6.25;;;5.85;;
24826;SDS011;12910;57.690;11.974;2022-07-21T00:22:52;5.88;;;5.55;;
24826;SDS011;12910;57.690;11.974;2022-07-21T00:25:18;5.40;;;5.10;;
24826;SDS011;12910;57.690;11.974;2022-07-21T00:27:43;6.00;;;5.60;;
24826;SDS011;12910;57.690;11.974;2022-07-21T00:30:10;5.70;;;5.40;;
24826;SDS011;12910;57.690;11.974;2022-07-21T00:32:36;5.60;;;5.30;;
24826;SDS011;12910;57.690;11.974;2022-07-21T00:35:05;5.22;;;4.93;;
24826;SDS011;12910;57.690;11.974;2022-07-21T00:37:31;5.60;;;5.30;;
24826;SDS011;12910;57.690;11.974;2022-07-21T00:39:57;6.40;;;6.00;;
24826;SDS011;12910;57.690;11.974;2022-07-21T00:42:23;5.50;;;5.20;;
24826;SDS011;12910;57.690;11.974;2022-07-21T00:44:49;6.03;;;5.53;;
24826;SDS011;12910;57.690;11.974;2022-07-21T00:47:18;4.90;;;4.70;;
24826;SDS011;12910;57.690;11.974;2022-07-21T00:49:55;5.15;;;4.85;;
24826;SDS011;12910;57.690;11.974;2022-07-21T00:52:21;5.75;;;5.35;;
24826;SDS011;12910;57.690;11.974;2022-07-21T00:54:47;5.72;;;5.32;;
24826;SDS011;12910;57.690;11.974;2022-07-21T00:57:13;6.82;;;5.10;;
24826;SDS011;12910;57.690;11.974;2022-07-21T00:59:39;6.32;;;5.65;;
24826;SDS011;12910;57.690;11.974;2022-07-21T01:02:05;6.35;;;5.32;;
24826;SDS011;12910;57.690;11.974;2022-07-21T01:04:31;5.57;;;5.13;;
24826;SDS011;12910;57.690;11.974;2022-07-21T01:06:57;6.72;;;5.25;;
24826;SDS011;12910;57.690;11.974;2022-07-21T01:09:25;5.03;;;4.72;;
24826;SDS011;12910;57.690;11.974;2022-07-21T01:11:50;6.40;;;6.05;;
24826;SDS011;12910;57.690;11.974;2022-07-21T01:14:16;5.85;;;5.55;;
24826;SDS011;12910;57.690;11.974;2022-07-21T01:16:42;5.95;;;5.53;;
24826;SDS011;12910;57.690;11.974;2022-07-21T01:19:08;6.53;;;6.03;;
24826;SDS011;12910;57.690;11.974;2022-07-21T01:21:42;5.53;;;5.22;;
24826;SDS011;12910;57.690;11.974;2022-07-21T01:24:09;6.18;;;5.88;;
24826;SDS011;12910;57.690;11.974;2022-07-21T01:26:41;5.80;;;5.50;;
24826;SDS011;12910;57.690;11.974;2022-07-21T01:29:11;6.00;;;5.60;;
24826;SDS011;12910;57.690;11.974;2022-07-21T01:31:38;5.60;;;5.25;;
24826;SDS011;12910;57.690;11.974;2022-07-21T01:34:05;8.23;;;5.72;;
24826;SDS011;12910;57.690;11.974;2022-07-21T01:36:31;6.05;;;5.63;;
24826;SDS011;12910;57.690;11.974;2022-07-21T01:38:56;6.22;;;5.65;;
24826;SDS011;12910;57.690;11.974;2022-07-21T01:41:40;5.22;;;4.82;;
24826;SDS011;12910;57.690;11.974;2022-07-21T01:44:07;5.88;;;5.38;;
24826;SDS011;12910;57.690;11.974;2022-07-21T01:46:35;5.25;;;4.95;;
24826;SDS011;12910;57.690;11.974;2022-07-21T01:49:03;5.40;;;5.10;;
24826;SDS011;12910;57.690;11.974;2022-07-21T01:51:29;6.10;;;5.70;;
24826;SDS011;12910;57.690;11.974;2022-07-21T01:53:55;5.72;;;5.43;;
24826;SDS011;12910;57.690;11.974;2022-07-21T01:56:21;6.47;;;6.07;;
24826;SDS011;12910;57.690;11.974;2022-07-21T01:58:49;6.00;;;5.40;;
24826;SDS011;12910;57.690;11.974;2022-07-21T02:01:16;5.85;;;5.55;;
24826;SDS011;12910;57.690;11.974;2022-07-21T02:03:42;6.35;;;5.47;;
24826;SDS011;12910;57.690;11.974;2022-07-21T02:06:08;5.72;;;5.40;;
24826;SDS011;12910;57.690;11.974;2022-07-21T02:08:34;6.38;;;6.03;;
24826;SDS011;12910;57.690;11.974;2022-07-21T02:11:00;5.30;;;5.00;;
24826;SDS011;12910;57.690;11.974;2022-07-21T02:13:26;6.07;;;5.72;;
24826;SDS011;12910;57.690;11.974;2022-07-21T02:15:51;6.50;;;5.95;;
24826;SDS011;12910;57.690;11.974;2022-07-21T02:18:17;5.97;;;5.47;;
24826;SDS011;12910;57.690;11.974;2022-07-21T02:20:43;5.60;;;5.13;;
24826;SDS011;12910;57.690;11.974;2022-07-21T02:23:10;5.82;;;5.53;;
24826;SDS011;12910;57.690;11.974;2022-07-21T02:25:36;6.40;;;6.00;;
24826;SDS011;12910;57.690;11.974;2022-07-21T02:28:01;5.25;;;4.85;;
24826;SDS011;12910;57.690;11.974;2022-07-21T02:30:27;5.75;;;5.45;;
24826;SDS011;12910;57.690;11.974;2022-07-21T02:32:52;5.25;;;4.95;;
24826;SDS011;12910;57.690;11.974;2022-07-21T02:35:19;5.80;;;5.50;;
24826;SDS011;12910;57.690;11.974;2022-07-21T02:37:45;6.65;;;6.25;;
24826;SDS011;12910;57.690;11.974;2022-07-21T02:40:10;8.27;;;6.03;;
24826;SDS011;12910;57.690;11.974;2022-07-21T02:42:36;5.93;;;5.43;;
24826;SDS011;12910;57.690;11.974;2022-07-21T02:45:03;5.72;;;5.43;;
24826;SDS011;12910;57.690;11.974;2022-07-21T02:47:30;6.38;;;5.80;;
24826;SDS011;12910;57.690;11.974;2022-07-21T02:49:55;4.75;;;4.45;;
24826;SDS011;12910;57.690;11.974;2022-07-21T02:52:20;6.50;;;5.88;;
24826;SDS011;12910;57.690;11.974;2022-07-21T02:54:46;6.70;;;6.20;;
24826;SDS011;12910;57.690;11.974;2022-07-21T02:57:11;4.97;;;4.68;;
24826;SDS011;12910;57.690;11.974;2022-07-21T02:59:37;6.10;;;5.78;;
24826;SDS011;12910;57.690;11.974;2022-07-21T03:02:02;6.22;;;5.85;;
24826;SDS011;12910;57.690;11.974;2022-07-21T03:04:27;6.32;;;5.93;;
24826;SDS011;12910;57.690;11.974;2022-07-21T03:06:53;7.03;;;6.53;;
24826;SDS011;12910;57.690;11.974;2022-07-21T03:09:18;5.30;;;5.00;;
24826;SDS011;12910;57.690;11.974;2022-07-21T03:11:44;6.18;;;5.78;;
24826;SDS011;12910;57.690;11.974;2022-07-21T03:14:09;6.57;;;6.07;;
24826;SDS011;12910;57.690;11.974;2022-07-21T03:16:34;6.07;;;5.78;;
24826;SDS011;12910;57.690;11.974;2022-07-21T03:19:00;6.95;;;6.55;;
24826;SDS011;12910;57.690;11.974;2022-07-21T03:21:25;6.65;;;6.10;;
24826;SDS011;12910;57.690;11.974;2022-07-21T03:23:51;6.20;;;5.90;;
24826;SDS011;12910;57.690;11.974;2022-07-21T03:26:16;5.95;;;5.65;;
24826;SDS011;12910;57.690;11.974;2022-07-21T03:28:42;6.00;;;5.55;;
24826;SDS011;12910;57.690;11.974;2022-07-21T03:31:08;6.25;;;5.75;;
24826;SDS011;12910;57.690;11.974;2022-07-21T03:33:35;5.53;;;5.22;;
24826;SDS011;12910;57.690;11.974;2022-07-21T03:36:00;6.65;;;6.25;;
24826;SDS011;12910;57.690;11.974;2022-07-21T03:38:27;5.97;;;5.68;;
24826;SDS011;12910;57.690;11.974;2022-07-21T03:40:52;6.22;;;5.72;;
24826;SDS011;12910;57.690;11.974;2022-07-21T03:43:18;9.65;;;6.72;;
24826;SDS011;12910;57.690;11.974;2022-07-21T03:45:44;6.50;;;6.15;;
24826;SDS011;12910;57.690;11.974;2022-07-21T03:48:11;6.45;;;5.90;;
24826;SDS011;12910;57.690;11.974;2022-07-21T03:50:37;6.05;;;5.65;;
24826;SDS011;12910;57.690;11.974;2022-07-21T03:53:04;6.18;;;5.78;;
24826;SDS011;12910;57.690;11.974;2022-07-21T03:55:31;6.65;;;6.35;;
24826;SDS011;12910;57.690;11.974;2022-07-21T03:57:59;6.05;;;5.70;;
24826;SDS011;12910;57.690;11.974;2022-07-21T04:00:39;7.00;;;6.32;;
24826;SDS011;12910;57.690;11.974;2022-07-21T04:03:06;5.82;;;5.47;;
24826;SDS011;12910;57.690;11.974;2022-07-21T04:05:32;5.95;;;5.65;;
24826;SDS011;12910;57.690;11.974;2022-07-21T04:07:58;6.03;;;5.70;;
24826;SDS011;12910;57.690;11.974;2022-07-21T04:10:29;5.30;;;5.00;;
24826;SDS011;12910;57.690;11.974;2022-07-21T04:12:56;5.45;;;5.15;;
24826;SDS011;12910;57.690;11.974;2022-07-21T04:15:24;6.40;;;5.90;;
24826;SDS011;12910;57.690;11.974;2022-07-21T04:17:50;6.82;;;6.20;;
24826;SDS011;12910;57.690;11.974;2022-07-21T04:20:17;6.13;;;5.65;;
24826;SDS011;12910;57.690;11.974;2022-07-21T04:22:44;6.05;;;5.75;;
24826;SDS011;12910;57.690;11.974;2022-07-21T04:25:10;6.07;;;5.47;;
24826;SDS011;12910;57.690;11.974;2022-07-21T04:27:36;5.50;;;4.95;;
24826;SDS011;12910;57.690;11.974;2022-07-21T04:30:03;5.85;;;5.50;;
24826;SDS011;12910;57.690;11.974;2022-07-21T04:32:29;7.00;;;6.43;;
24826;SDS011;12910;57.690;11.974;2022-07-21T04:34:55;6.00;;;5.68;;
24826;SDS011;12910;57.690;11.974;2022-07-21T04:37:21;6.43;;;6.13;;
24826;SDS011;12910;57.690;11.974;2022-07-21T04:39:47;6.03;;;5.68;;
24826;SDS011;12910;57.690;11.974;2022-07-21T04:42:13;6.50;;;6.20;;
24826;SDS011;12910;57.690;11.974;2022-07-21T04:44:38;8.02;;;6.22;;
24826;SDS011;12910;57.690;11.974;2022-07-21T04:47:04;6.22;;;5.82;;
24826;SDS011;12910;57.690;11.974;2022-07-21T04:49:29;6.95;;;6.45;;
24826;SDS011;12910;57.690;11.974;2022-07-21T04:51:55;6.30;;;5.90;;
24826;SDS011;12910;57.690;11.974;2022-07-21T04:54:20;5.97;;;5.68;;
24826;SDS011;12910;57.690;11.974;2022-07-21T04:56:45;6.60;;;6.20;;
24826;SDS011;12910;57.690;11.974;2022-07-21T04:59:11;6.47;;;6.18;;
24826;SDS011;12910;57.690;11.974;2022-07-21T05:01:37;6.22;;;5.88;;
24826;SDS011;12910;57.690;11.974;2022-07-21T05:04:03;6.05;;;5.75;;
24826;SDS011;12910;57.690;11.974;2022-07-21T05:06:30;6.63;;;6.25;;
24826;SDS011;12910;57.690;11.974;2022-07-21T05:08:56;6.45;;;5.95;;
24826;SDS011;12910;57.690;11.974;2022-07-21T05:11:21;6.15;;;5.78;;
24826;SDS011;12910;57.690;11.974;2022-07-21T05:13:46;8.00;;;6.20;;
24826;SDS011;12910;57.690;11.974;2022-07-21T05:16:12;6.65;;;6.25;;
24826;SDS011;12910;57.690;11.974;2022-07-21T05:18:37;5.75;;;5.40;;
24826;SDS011;12910;57.690;11.974;2022-07-21T05:21:03;6.45;;;5.95;;
24826;SDS011;12910;57.690;11.974;2022-07-21T05:23:29;7.07;;;6.43;;
24826;SDS011;12910;57.690;11.974;2022-07-21T05:25:54;6.82;;;6.32;;
24826;SDS011;12910;57.690;11.974;2022-07-21T05:28:19;7.22;;;6.75;;
24826;SDS011;12910;57.690;11.974;2022-07-21T05:30:45;5.57;;;5.18;;
24826;SDS011;12910;57.690;11.974;2022-07-21T05:33:10;7.32;;;6.28;;
24826;SDS011;12910;57.690;11.974;2022-07-21T05:35:36;6.30;;;5.70;;
24826;SDS011;12910;57.690;11.974;2022-07-21T05:38:01;7.30;;;6.75;;
24826;SDS011;12910;57.690;11.974;2022-07-21T05:40:27;6.53;;;6.22;;
24826;SDS011;12910;57.690;11.974;2022-07-21T05:42:52;6.60;;;6.30;;
24826;SDS011;12910;57.690;11.974;2022-07-21T05:45:17;7.07;;;6.68;;
24826;SDS011;12910;57.690;11.974;2022-07-21T05:47:43;6.40;;;6.10;;
24826;SDS011;12910;57.690;11.974;2022-07-21T05:50:08;6.57;;;6.07;;
24826;SDS011;12910;57.690;11.974;2022-07-21T05:52:34;6.47;;;6.00;;
24826;SDS011;12910;57.690;11.974;2022-07-21T05:55:00;6.28;;;5.93;;
24826;SDS011;12910;57.690;11.974;2022-07-21T05:57:25;6.75;;;6.13;;
24826;SDS011;12910;57.690;11.974;2022-07-21T05:59:51;7.13;;;6.72;;
24826;SDS011;12910;57.690;11.974;2022-07-21T06:02:17;9.65;;;5.72;;
24826;SDS011;12910;57.690;11.974;2022-07-21T06:04:42;7.03;;;6.63;;
24826;SDS011;12910;57.690;11.974;2022-07-21T06:07:08;6.70;;;6.30;;
24826;SDS011;12910;57.690;11.974;2022-07-21T06:09:33;6.85;;;6.45;;
24826;SDS011;12910;57.690;11.974;2022-07-21T06:11:58;11.43;;;6.25;;
24826;SDS011;12910;57.690;11.974;2022-07-21T06:14:24;6.55;;;6.15;;
24826;SDS011;12910;57.690;11.974;2022-07-21T06:16:50;9.38;;;8.77;;
24826;SDS011;12910;57.690;11.974;2022-07-21T06:19:16;6.63;;;6.13;;
24826;SDS011;12910;57.690;11.974;2022-07-21T06:21:41;6.90;;;6.43;;
24826;SDS011;12910;57.690;11.974;2022-07-21T06:24:07;6.70;;;6.10;;
24826;SDS011;12910;57.690;11.974;2022-07-21T06:26:33;6.50;;;5.93;;
24826;SDS011;12910;57.690;11.974;2022-07-21T06:28:58;6.30;;;5.90;;
24826;SDS011;12910;57.690;11.974;2022-07-21T06:31:24;7.35;;;6.85;;
24826;SDS011;12910;57.690;11.974;2022-07-21T06:33:49;6.68;;;6.28;;
24826;SDS011;12910;57.690;11.974;2022-07-21T06:36:15;6.85;;;6.32;;
24826;SDS011;12910;57.690;11.974;2022-07-21T06:38:40;6.53;;;6.13;;
24826;SDS011;12910;57.690;11.974;2022-07-21T06:41:06;6.05;;;5.75;;
24826;SDS011;12910;57.690;11.974;2022-07-21T06:43:32;8.07;;;7.32;;
24826;SDS011;12910;57.690;11.974;2022-07-21T06:45:58;6.90;;;6.43;;
24826;SDS011;12910;57.690;11.974;2022-07-21T06:48:23;7.78;;;6.55;;
24826;SDS011;12910;57.690;11.974;2022-07-21T06:50:50;7.07;;;6.57;;
24826;SDS011;12910;57.690;11.974;2022-07-21T06:53:15;8.32;;;6.03;;
24826;SDS011;12910;57.690;11.974;2022-07-21T06:55:41;8.23;;;5.78;;
24826;SDS011;12910;57.690;11.974;2022-07-21T06:58:08;7.65;;;6.95;;
24826;SDS011;12910;57.690;11.974;2022-07-21T07:00:38;9.05;;;6.05;;
24826;SDS011;12910;57.690;11.974;2022-07-21T07:03:03;7.50;;;6.78;;
24826;SDS011;12910;57.690;11.974;2022-07-21T07:05:29;7.05;;;6.70;;
24826;SDS011;12910;57.690;11.974;2022-07-21T07:07:55;6.85;;;6.22;;
24826;SDS011;12910;57.690;11.974;2022-07-21T07:10:21;8.10;;;7.15;;
24826;SDS011;12910;57.690;11.974;2022-07-21T07:12:47;6.32;;;5.93;;
24826;SDS011;12910;57.690;11.974;2022-07-21T07:15:12;6.95;;;6.15;;
24826;SDS011;12910;57.690;11.974;2022-07-21T07:17:37;7.00;;;6.60;;
24826;SDS011;12910;57.690;11.974;2022-07-21T07:20:03;6.50;;;6.07;;
24826;SDS011;12910;57.690;11.974;2022-07-21T07:22:31;6.72;;;6.32;;
24826;SDS011;12910;57.690;11.974;2022-07-21T07:24:57;7.00;;;5.75;;
24826;SDS011;12910;57.690;11.974;2022-07-21T07:27:22;6.75;;;6.30;;
24826;SDS011;12910;57.690;11.974;2022-07-21T07:29:47;7.15;;;6.15;;
24826;SDS011;12910;57.690;11.974;2022-07-21T07:32:13;6.90;;;6.60;;
24826;SDS011;12910;57.690;11.974;2022-07-21T07:34:38;7.25;;;6.85;;
24826;SDS011;12910;57.690;11.974;2022-07-21T07:37:03;6.57;;;5.95;;
24826;SDS011;12910;57.690;11.974;2022-07-21T07:39:29;7.35;;;6.95;;
24826;SDS011;12910;57.690;11.974;2022-07-21T07:41:54;7.28;;;6.88;;
24826;SDS011;12910;57.690;11.974;2022-07-21T07:44:20;7.10;;;6.20;;
24826;SDS011;12910;57.690;11.974;2022-07-21T07:46:46;8.15;;;7.45;;
24826;SDS011;12910;57.690;11.974;2022-07-21T07:49:11;6.93;;;6.53;;
24826;SDS011;12910;57.690;11.974;2022-07-21T07:51:37;6.85;;;6.45;;
24826;SDS011;12910;57.690;11.974;2022-07-21T07:54:03;7.57;;;6.13;;
24826;SDS011;12910;57.690;11.974;2022-07-21T07:56:29;6.45;;;5.88;;
24826;SDS011;12910;57.690;11.974;2022-07-21T07:58:54;6.65;;;6.25;;
24826;SDS011;12910;57.690;11.974;2022-07-21T08:01:20;6.28;;;5.95;;
24826;SDS011;12910;57.690;11.974;2022-07-21T08:03:46;7.95;;;6.70;;
24826;SDS011;12910;57.690;11.974;2022-07-21T08:06:12;6.93;;;6.00;;
24826;SDS011;12910;57.690;11.974;2022-07-21T08:08:37;6.57;;;6.03;;
24826;SDS011;12910;57.690;11.974;2022-07-21T08:11:03;7.88;;;5.95;;
24826;SDS011;12910;57.690;11.974;2022-07-21T08:13:29;7.25;;;6.65;;
24826;SDS011;12910;57.690;11.974;2022-07-21T08:15:54;7.30;;;6.80;;
24826;SDS011;12910;57.690;11.974;2022-07-21T08:18:20;9.23;;;6.28;;
24826;SDS011;12910;57.690;11.974;2022-07-21T08:20:46;7.18;;;6.55;;
24826;SDS011;12910;57.690;11.974;2022-07-21T08:23:12;8.77;;;8.18;;
24826;SDS011;12910;57.690;11.974;2022-07-21T08:25:39;7.70;;;7.20;;
24826;SDS011;12910;57.690;11.974;2022-07-21T08:28:04;6.47;;;6.07;;
24826;SDS011;12910;57.690;11.974;2022-07-21T08:30:31;6.63;;;6.20;;
24826;SDS011;12910;57.690;11.974;2022-07-21T08:32:56;7.03;;;6.55;;
24826;SDS011;12910;57.690;11.974;2022-07-21T08:35:22;10.63;;;6.40;;
24826;SDS011;12910;57.690;11.974;2022-07-21T08:37:58;12.35;;;7.45;;
24826;SDS011;12910;57.690;11.974;2022-07-21T08:40:32;8.55;;;6.72;;
24826;SDS011;12910;57.690;11.974;2022-07-21T08:43:00;6.47;;;6.07;;
24826;SDS011;12910;57.690;11.974;2022-07-21T08:45:26;6.63;;;6.22;;
24826;SDS011;12910;57.690;11.974;2022-07-21T08:47:53;10.15;;;7.47;;
24826;SDS011;12910;57.690;11.974;2022-07-21T08:50:23;7.40;;;6.70;;
24826;SDS011;12910;57.690;11.974;2022-07-21T08:52:52;6.90;;;6.30;;
24826;SDS011;12910;57.690;11.974;2022-07-21T08:55:17;7.63;;;5.63;;
24826;SDS011;12910;57.690;11.974;2022-07-21T08:57:43;6.53;;;6.03;;
24826;SDS011;12910;57.690;11.974;2022-07-21T09:00:08;7.93;;;6.63;;
24826;SDS011;12910;57.690;11.974;2022-07-21T09:02:36;6.32;;;5.90;;
24826;SDS011;12910;57.690;11.974;2022-07-21T09:05:03;7.07;;;6.07;;
24826;SDS011;12910;57.690;11.974;2022-07-21T09:10:32;6.63;;;5.80;;
24826;SDS011;12910;57.690;11.974;2022-07-21T09:12:59;6.35;;;5.95;;
24826;SDS011;12910;57.690;11.974;2022-07-21T09:15:27;7.25;;;6.28;;
24826;SDS011;12910;57.690;11.974;2022-07-21T09:18:04;6.97;;;6.55;;
24826;SDS011;12910;57.690;11.974;2022-07-21T09:20:30;8.38;;;6.35;;
24826;SDS011;12910;57.690;11.974;2022-07-21T09:23:06;6.20;;;5.90;;
24826;SDS011;12910;57.690;11.974;2022-07-21T09:25:35;10.98;;;6.57;;
24826;SDS011;12910;57.690;11.974;2022-07-21T09:28:19;6.90;;;6.25;;
24826;SDS011;12910;57.690;11.974;2022-07-21T09:33:27;8.25;;;5.88;;
24826;SDS011;12910;57.690;11.974;2022-07-21T09:38:22;7.18;;;6.60;;
24826;SDS011;12910;57.690;11.974;2022-07-21T09:40:48;7.72;;;7.30;;
24826;SDS011;12910;57.690;11.974;2022-07-21T09:43:28;5.90;;;5.45;;
24826;SDS011;12910;57.690;11.974;2022-07-21T09:46:03;6.82;;;6.40;;
24826;SDS011;12910;57.690;11.974;2022-07-21T09:48:38;6.22;;;5.82;;
24826;SDS011;12910;57.690;11.974;2022-07-21T09:54:06;10.70;;;6.18;;
24826;SDS011;12910;57.690;11.974;2022-07-21T09:56:34;6.82;;;6.43;;
24826;SDS011;12910;57.690;11.974;2022-07-21T09:59:02;7.70;;;6.05;;
24826;SDS011;12910;57.690;11.974;2022-07-21T10:01:29;6.00;;;5.50;;
24826;SDS011;12910;57.690;11.974;2022-07-21T10:03:56;6.47;;;5.95;;
24826;SDS011;12910;57.690;11.974;2022-07-21T10:06:26;7.32;;;6.63;;
24826;SDS011;12910;57.690;11.974;2022-07-21T10:08:54;6.38;;;6.07;;
24826;SDS011;12910;57.690;11.974;2022-07-21T10:11:21;8.60;;;7.95;;
24826;SDS011;12910;57.690;11.974;2022-07-21T10:13:47;8.10;;;7.03;;
24826;SDS011;12910;57.690;11.974;2022-07-21T10:16:13;6.38;;;6.00;;
24826;SDS011;12910;57.690;11.974;2022-07-21T10:24:22;5.88;;;5.00;;
24826;SDS011;12910;57.690;11.974;2022-07-21T10:27:00;6.07;;;5.65;;
24826;SDS011;12910;57.690;11.974;2022-07-21T10:32:13;6.53;;;6.13;;
24826;SDS011;12910;57.690;11.974;2022-07-21T10:34:39;5.88;;;5.57;;
24826;SDS011;12910;57.690;11.974;2022-07-21T10:37:05;6.00;;;5.70;;
24826;SDS011;12910;57.690;11.974;2022-07-21T10:39:30;6.13;;;5.72;;
24826;SDS011;12910;57.690;11.974;2022-07-21T10:41:58;7.05;;;6.40;;
24826;SDS011;12910;57.690;11.974;2022-07-21T10:47:10;6.78;;;6.38;;
24826;SDS011;12910;57.690;11.974;2022-07-21T10:49:57;6.47;;;5.97;;
24826;SDS011;12910;57.690;11.974;2022-07-21T10:57:39;6.15;;;5.80;;
24826;SDS011;12910;57.690;11.974;2022-07-21T11:02:41;8.68;;;6.85;;
24826;SDS011;12910;57.690;11.974;2022-07-21T11:05:07;6.30;;;6.00;;
24826;SDS011;12910;57.690;11.974;2022-07-21T11:10:39;7.55;;;6.07;;
24826;SDS011;12910;57.690;11.974;2022-07-21T11:13:16;6.35;;;5.85;;
24826;SDS011;12910;57.690;11.974;2022-07-21T11:15:45;6.07;;;5.68;;
24826;SDS011;12910;57.690;11.974;2022-07-21T11:18:30;6.18;;;5.68;;
24826;SDS011;12910;57.690;11.974;2022-07-21T11:21:07;6.28;;;5.82;;
24826;SDS011;12910;57.690;11.974;2022-07-21T11:23:36;5.78;;;5.47;;
24826;SDS011;12910;57.690;11.974;2022-07-21T11:26:01;6.47;;;5.88;;
24826;SDS011;12910;57.690;11.974;2022-07-21T11:28:26;5.90;;;5.40;;
24826;SDS011;12910;57.690;11.974;2022-07-21T11:31:14;6.53;;;6.13;;
24826;SDS011;12910;57.690;11.974;2022-07-21T11:33:40;6.15;;;5.80;;
24826;SDS011;12910;57.690;11.974;2022-07-21T11:36:07;6.13;;;5.70;;
24826;SDS011;12910;57.690;11.974;2022-07-21T11:38:33;6.30;;;6.00;;
24826;SDS011;12910;57.690;11.974;2022-07-21T11:41:12;8.10;;;7.50;;
24826;SDS011;12910;57.690;11.974;2022-07-21T11:43:39;6.80;;;6.45;;
24826;SDS011;12910;57.690;11.974;2022-07-21T11:46:06;7.18;;;6.78;;
24826;SDS011;12910;57.690;11.974;2022-07-21T11:48:32;7.40;;;6.07;;
24826;SDS011;12910;57.690;11.974;2022-07-21T11:50:59;6.50;;;6.10;;
24826;SDS011;12910;57.690;11.974;2022-07-21T11:53:25;6.65;;;6.25;;
24826;SDS011;12910;57.690;11.974;2022-07-21T11:55:51;6.40;;;6.00;;
24826;SDS011;12910;57.690;11.974;2022-07-21T11:58:17;7.20;;;6.40;;
24826;SDS011;12910;57.690;11.974;2022-07-21T12:00:43;9.23;;;7.32;;
24826;SDS011;12910;57.690;11.974;2022-07-21T12:03:08;8.65;;;7.90;;
24826;SDS011;12910;57.690;11.974;2022-07-21T12:05:35;6.90;;;6.40;;
24826;SDS011;12910;57.690;11.974;2022-07-21T12:08:02;10.15;;;6.78;;
24826;SDS011;12910;57.690;11.974;2022-07-21T12:10:28;8.50;;;7.68;;
24826;SDS011;12910;57.690;11.974;2022-07-21T12:13:01;7.45;;;6.75;;
24826;SDS011;12910;57.690;11.974;2022-07-21T12:15:32;7.05;;;6.65;;
24826;SDS011;12910;57.690;11.974;2022-07-21T12:18:06;7.10;;;6.70;;
24826;SDS011;12910;57.690;11.974;2022-07-21T12:20:33;8.13;;;7.40;;
24826;SDS011;12910;57.690;11.974;2022-07-21T12:23:02;8.93;;;6.53;;
24826;SDS011;12910;57.690;11.974;2022-07-21T12:25:42;7.28;;;6.78;;
24826;SDS011;12910;57.690;11.974;2022-07-21T12:28:07;7.82;;;7.18;;
24826;SDS011;12910;57.690;11.974;2022-07-21T12:30:37;7.43;;;7.03;;
24826;SDS011;12910;57.690;11.974;2022-07-21T12:33:49;7.72;;;6.93;;
24826;SDS011;12910;57.690;11.974;2022-07-21T12:36:03;7.18;;;6.68;;
24826;SDS011;12910;57.690;11.974;2022-07-21T12:38:45;7.43;;;7.03;;
24826;SDS011;12910;57.690;11.974;2022-07-21T12:41:13;7.43;;;7.03;;
24826;SDS011;12910;57.690;11.974;2022-07-21T12:43:40;7.50;;;6.95;;
24826;SDS011;12910;57.690;11.974;2022-07-21T12:48:35;8.65;;;7.93;;
24826;SDS011;12910;57.690;11.974;2022-07-21T12:51:05;9.18;;;7.28;;
24826;SDS011;12910;57.690;11.974;2022-07-21T12:53:32;8.45;;;7.85;;
24826;SDS011;12910;57.690;11.974;2022-07-21T12:55:59;8.55;;;7.72;;
24826;SDS011;12910;57.690;11.974;2022-07-21T12:58:24;8.70;;;7.53;;
24826;SDS011;12910;57.690;11.974;2022-07-21T13:00:50;8.05;;;7.43;;
24826;SDS011;12910;57.690;11.974;2022-07-21T13:03:15;7.78;;;7.07;;
24826;SDS011;12910;57.690;11.974;2022-07-21T13:05:41;7.70;;;6.97;;
24826;SDS011;12910;57.690;11.974;2022-07-21T13:08:06;8.57;;;7.85;;
24826;SDS011;12910;57.690;11.974;2022-07-21T13:10:32;8.73;;;8.02;;
24826;SDS011;12910;57.690;11.974;2022-07-21T13:12:57;8.43;;;7.68;;
24826;SDS011;12910;57.690;11.974;2022-07-21T13:15:22;21.02;;;8.93;;
24826;SDS011;12910;57.690;11.974;2022-07-21T13:17:48;12.90;;;8.75;;
24826;SDS011;12910;57.690;11.974;2022-07-21T13:20:14;9.43;;;8.63;;
24826;SDS011;12910;57.690;11.974;2022-07-21T13:22:40;7.43;;;6.93;;
24826;SDS011;12910;57.690;11.974;2022-07-21T13:25:06;8.00;;;7.60;;
24826;SDS011;12910;57.690;11.974;2022-07-21T13:27:33;14.00;;;8.93;;
24826;SDS011;12910;57.690;11.974;2022-07-21T13:29:59;8.32;;;7.82;;
24826;SDS011;12910;57.690;11.974;2022-07-21T13:32:25;9.60;;;7.68;;
24826;SDS011;12910;57.690;11.974;2022-07-21T13:34:51;7.93;;;7.47;;
24826;SDS011;12910;57.690;11.974;2022-07-21T13:37:17;8.40;;;7.75;;
24826;SDS011;12910;57.690;11.974;2022-07-21T13:39:42;8.73;;;8.13;;
24826;SDS011;12910;57.690;11.974;2022-07-21T13:42:08;9.10;;;8.40;;
24826;SDS011;12910;57.690;11.974;2022-07-21T13:44:34;12.95;;;8.38;;
24826;SDS011;12910;57.690;11.974;2022-07-21T13:47:00;8.05;;;7.65;;
24826;SDS011;12910;57.690;11.974;2022-07-21T13:49:25;10.30;;;8.10;;
24826;SDS011;12910;57.690;11.974;2022-07-21T13:51:51;14.40;;;7.82;;
24826;SDS011;12910;57.690;11.974;2022-07-21T13:54:16;8.90;;;8.30;;
24826;SDS011;12910;57.690;11.974;2022-07-21T13:56:42;8.88;;;7.95;;
24826;SDS011;12910;57.690;11.974;2022-07-21T13:59:07;9.70;;;9.10;;
24826;SDS011;12910;57.690;11.974;2022-07-21T14:01:33;9.27;;;8.52;;
24826;SDS011;12910;57.690;11.974;2022-07-21T14:03:58;9.32;;;8.77;;
24826;SDS011;12910;57.690;11.974;2022-07-21T14:06:24;9.07;;;8.38;;
24826;SDS011;12910;57.690;11.974;2022-07-21T14:08:49;9.63;;;8.98;;
24826;SDS011;12910;57.690;11.974;2022-07-21T14:11:15;10.68;;;7.60;;
24826;SDS011;12910;57.690;11.974;2022-07-21T14:13:41;10.85;;;8.20;;
24826;SDS011;12910;57.690;11.974;2022-07-21T14:16:07;10.38;;;8.13;;
24826;SDS011;12910;57.690;11.974;2022-07-21T14:18:33;7.85;;;7.13;;
24826;SDS011;12910;57.690;11.974;2022-07-21T14:20:59;8.40;;;7.72;;
24826;SDS011;12910;57.690;11.974;2022-07-21T14:23:24;8.60;;;7.80;;
24826;SDS011;12910;57.690;11.974;2022-07-21T14:25:50;7.97;;;7.30;;
24826;SDS011;12910;57.690;11.974;2022-07-21T14:28:17;8.70;;;7.43;;
24826;SDS011;12910;57.690;11.974;2022-07-21T14:30:42;7.03;;;6.53;;
24826;SDS011;12910;57.690;11.974;2022-07-21T14:33:08;8.13;;;7.63;;
24826;SDS011;12910;57.690;11.974;2022-07-21T14:35:34;10.20;;;7.38;;
24826;SDS011;12910;57.690;11.974;2022-07-21T14:38:00;8.80;;;8.13;;
24826;SDS011;12910;57.690;11.974;2022-07-21T14:40:25;9.60;;;9.00;;
24826;SDS011;12910;57.690;11.974;2022-07-21T14:42:51;9.32;;;8.50;;
24826;SDS011;12910;57.690;11.974;2022-07-21T14:45:17;9.10;;;8.48;;
24826;SDS011;12910;57.690;11.974;2022-07-21T14:47:43;10.07;;;9.32;;
24826;SDS011;12910;57.690;11.974;2022-07-21T14:50:11;17.13;;;9.63;;
24826;SDS011;12910;57.690;11.974;2022-07-21T14:52:37;10.48;;;9.68;;
24826;SDS011;12910;57.690;11.974;2022-07-21T14:55:02;10.98;;;9.50;;
24826;SDS011;12910;57.690;11.974;2022-07-21T14:57:29;15.75;;;9.65;;
24826;SDS011;12910;57.690;11.974;2022-07-21T14:59:54;11.15;;;10.32;;
24826;SDS011;12910;57.690;11.974;2022-07-21T15:02:20;11.30;;;10.50;;
24826;SDS011;12910;57.690;11.974;2022-07-21T15:04:45;11.68;;;10.65;;
24826;SDS011;12910;57.690;11.974;2022-07-21T15:07:11;12.57;;;9.43;;